<?xml version="1.0" encoding="UTF-8" standalone="no" ?><gpx xmlns="http://www.topografix.com/GPX/1/1" xmlns:gpxx="http://www.garmin.com/xmlschemas/GpxExtensions/v3" xmlns:wptx1="http://www.garmin.com/xmlschemas/WaypointExtension/v1" xmlns:gpxtpx="http://www.garmin.com/xmlschemas/TrackPointExtension/v1" creator="GuideVTT.com" version="1.1" xmlns:xsi="http://www.w3.org/2001/XMLSchema-instance" xsi:schemaLocation="http://www.topografix.com/GPX/1/1 http://www.topografix.com/GPX/1/1/gpx.xsd http://www.garmin.com/xmlschemas/GpxExtensions/v3 http://www8.garmin.com/xmlschemas/GpxExtensionsv3.xsd http://www.garmin.com/xmlschemas/WaypointExtension/v1 http://www8.garmin.com/xmlschemas/WaypointExtensionv1.xsd http://www.garmin.com/xmlschemas/TrackPointExtension/v1 http://www.garmin.com/xmlschemas/TrackPointExtensionv1.xsd">
<metadata><link href="http://www.garmin.com"><text>Garmin International</text></link><time>2013-06-22T15:13:50Z</time></metadata>
<trk><name>parcours11.gpx</name><extensions><gpxx:TrackExtension><gpxx:DisplayColor>Cyan</gpxx:DisplayColor></gpxx:TrackExtension></extensions><trkseg>
<trkpt lat="46.22631670" lon="7.42681670"><ele>1310</ele><time>2003-07-12T13:44:50Z</time></trkpt>
<trkpt lat="46.22631670" lon="7.42680000"><ele>1310</ele><time>2003-07-12T13:45:35Z</time></trkpt>
<trkpt lat="46.22628330" lon="7.42681670"><ele>1311</ele><time>2003-07-12T13:45:45Z</time></trkpt>
<trkpt lat="46.22616670" lon="7.42683330"><ele>1312</ele><time>2003-07-12T13:45:55Z</time></trkpt>
<trkpt lat="46.22605000" lon="7.42683330"><ele>1314</ele><time>2003-07-12T13:46:05Z</time></trkpt>
<trkpt lat="46.22601670" lon="7.42688330"><ele>1314</ele><time>2003-07-12T13:46:09Z</time></trkpt>
<trkpt lat="46.22588330" lon="7.42711670"><ele>1313</ele><time>2003-07-12T13:46:24Z</time></trkpt>
<trkpt lat="46.22576670" lon="7.42736670"><ele>1314</ele><time>2003-07-12T13:46:38Z</time></trkpt>
<trkpt lat="46.22565000" lon="7.42755000"><ele>1317</ele><time>2003-07-12T13:46:52Z</time></trkpt>
<trkpt lat="46.22543330" lon="7.42763330"><ele>1321</ele><time>2003-07-12T13:47:06Z</time></trkpt>
<trkpt lat="46.22530000" lon="7.42773330"><ele>1322</ele><time>2003-07-12T13:47:21Z</time></trkpt>
<trkpt lat="46.22531670" lon="7.42773330"><ele>1322</ele><time>2003-07-12T13:47:23Z</time></trkpt>
<trkpt lat="46.22535000" lon="7.42778330"><ele>1321</ele><time>2003-07-12T13:47:26Z</time></trkpt>
<trkpt lat="46.22551670" lon="7.42785000"><ele>1322</ele><time>2003-07-12T13:47:38Z</time></trkpt>
<trkpt lat="46.22583330" lon="7.42788330"><ele>1323</ele><time>2003-07-12T13:47:58Z</time></trkpt>
<trkpt lat="46.22601670" lon="7.42815000"><ele>1325</ele><time>2003-07-12T13:48:13Z</time></trkpt>
<trkpt lat="46.22616670" lon="7.42838330"><ele>1328</ele><time>2003-07-12T13:48:27Z</time></trkpt>
<trkpt lat="46.22623330" lon="7.42863330"><ele>1330</ele><time>2003-07-12T13:48:40Z</time></trkpt>
<trkpt lat="46.22623330" lon="7.42866670"><ele>1330</ele><time>2003-07-12T13:48:41Z</time></trkpt>
<trkpt lat="46.22598330" lon="7.42853330"><ele>1332</ele><time>2003-07-12T13:48:55Z</time></trkpt>
<trkpt lat="46.22590000" lon="7.42848330"><ele>1333</ele><time>2003-07-12T13:49:02Z</time></trkpt>
<trkpt lat="46.22565000" lon="7.42855000"><ele>1336</ele><time>2003-07-12T13:49:18Z</time></trkpt>
<trkpt lat="46.22538330" lon="7.42875000"><ele>1340</ele><time>2003-07-12T13:49:36Z</time></trkpt>
<trkpt lat="46.22518330" lon="7.42870000"><ele>1341</ele><time>2003-07-12T13:49:50Z</time></trkpt>
<trkpt lat="46.22493330" lon="7.42876670"><ele>1345</ele><time>2003-07-12T13:50:06Z</time></trkpt>
<trkpt lat="46.22476670" lon="7.42885000"><ele>1346</ele><time>2003-07-12T13:50:20Z</time></trkpt>
<trkpt lat="46.22455000" lon="7.42890000"><ele>1350</ele><time>2003-07-12T13:50:34Z</time></trkpt>
<trkpt lat="46.22438330" lon="7.42890000"><ele>1352</ele><time>2003-07-12T13:50:46Z</time></trkpt>
<trkpt lat="46.22420000" lon="7.42886670"><ele>1355</ele><time>2003-07-12T13:50:59Z</time></trkpt>
<trkpt lat="46.22411670" lon="7.42885000"><ele>1356</ele><time>2003-07-12T13:51:04Z</time></trkpt>
<trkpt lat="46.22408330" lon="7.42885000"><ele>1357</ele><time>2003-07-12T13:51:08Z</time></trkpt>
<trkpt lat="46.22400000" lon="7.42891670"><ele>1358</ele><time>2003-07-12T13:51:20Z</time></trkpt>
<trkpt lat="46.22400000" lon="7.42893330"><ele>1357</ele><time>2003-07-12T13:51:28Z</time></trkpt>
<trkpt lat="46.22400000" lon="7.42896670"><ele>1357</ele><time>2003-07-12T13:51:38Z</time></trkpt>
<trkpt lat="46.22396670" lon="7.42893330"><ele>1356</ele><time>2003-07-12T13:51:52Z</time></trkpt>
<trkpt lat="46.22400000" lon="7.42893330"><ele>1357</ele><time>2003-07-12T13:52:08Z</time></trkpt>
<trkpt lat="46.22395000" lon="7.42890000"><ele>1357</ele><time>2003-07-12T13:52:19Z</time></trkpt>
<trkpt lat="46.22395000" lon="7.42890000"><ele>1357</ele><time>2003-07-12T13:52:30Z</time></trkpt>
<trkpt lat="46.22396670" lon="7.42890000"><ele>1359</ele><time>2003-07-12T13:53:00Z</time></trkpt>
<trkpt lat="46.22411670" lon="7.42898330"><ele>1359</ele><time>2003-07-12T13:53:14Z</time></trkpt>
<trkpt lat="46.22431670" lon="7.42915000"><ele>1362</ele><time>2003-07-12T13:53:29Z</time></trkpt>
<trkpt lat="46.22448330" lon="7.42936670"><ele>1365</ele><time>2003-07-12T13:53:44Z</time></trkpt>
<trkpt lat="46.22466670" lon="7.42966670"><ele>1370</ele><time>2003-07-12T13:54:02Z</time></trkpt>
<trkpt lat="46.22476670" lon="7.42991670"><ele>1374</ele><time>2003-07-12T13:54:16Z</time></trkpt>
<trkpt lat="46.22483330" lon="7.43003330"><ele>1375</ele><time>2003-07-12T13:54:22Z</time></trkpt>
<trkpt lat="46.22500000" lon="7.43033330"><ele>1375</ele><time>2003-07-12T13:54:43Z</time></trkpt>
<trkpt lat="46.22515000" lon="7.43058330"><ele>1376</ele><time>2003-07-12T13:54:58Z</time></trkpt>
<trkpt lat="46.22531670" lon="7.43078330"><ele>1378</ele><time>2003-07-12T13:55:14Z</time></trkpt>
<trkpt lat="46.22560000" lon="7.43073330"><ele>1381</ele><time>2003-07-12T13:55:31Z</time></trkpt>
<trkpt lat="46.22568330" lon="7.43076670"><ele>1381</ele><time>2003-07-12T13:55:44Z</time></trkpt>
<trkpt lat="46.22573330" lon="7.43078330"><ele>1381</ele><time>2003-07-12T13:55:53Z</time></trkpt>
<trkpt lat="46.22586670" lon="7.43095000"><ele>1380</ele><time>2003-07-12T13:56:02Z</time></trkpt>
<trkpt lat="46.22608330" lon="7.43160000"><ele>1379</ele><time>2003-07-12T13:56:12Z</time></trkpt>
<trkpt lat="46.22665000" lon="7.43295000"><ele>1377</ele><time>2003-07-12T13:56:28Z</time></trkpt>
<trkpt lat="46.22668330" lon="7.43301670"><ele>1376</ele><time>2003-07-12T13:56:29Z</time></trkpt>
<trkpt lat="46.22691670" lon="7.43361670"><ele>1376</ele><time>2003-07-12T13:56:39Z</time></trkpt>
<trkpt lat="46.22703330" lon="7.43416670"><ele>1377</ele><time>2003-07-12T13:56:52Z</time></trkpt>
<trkpt lat="46.22708330" lon="7.43473330"><ele>1376</ele><time>2003-07-12T13:57:06Z</time></trkpt>
<trkpt lat="46.22728330" lon="7.43506670"><ele>1377</ele><time>2003-07-12T13:57:20Z</time></trkpt>
<trkpt lat="46.22728330" lon="7.43548330"><ele>1380</ele><time>2003-07-12T13:57:34Z</time></trkpt>
<trkpt lat="46.22731670" lon="7.43595000"><ele>1385</ele><time>2003-07-12T13:57:47Z</time></trkpt>
<trkpt lat="46.22728330" lon="7.43643330"><ele>1386</ele><time>2003-07-12T13:58:01Z</time></trkpt>
<trkpt lat="46.22731670" lon="7.43703330"><ele>1385</ele><time>2003-07-12T13:58:19Z</time></trkpt>
<trkpt lat="46.22743330" lon="7.43763330"><ele>1388</ele><time>2003-07-12T13:58:32Z</time></trkpt>
<trkpt lat="46.22735000" lon="7.43825000"><ele>1387</ele><time>2003-07-12T13:58:43Z</time></trkpt>
<trkpt lat="46.22738330" lon="7.43896670"><ele>1388</ele><time>2003-07-12T13:58:57Z</time></trkpt>
<trkpt lat="46.22758330" lon="7.43998330"><ele>1389</ele><time>2003-07-12T13:59:19Z</time></trkpt>
<trkpt lat="46.22761670" lon="7.44068330"><ele>1389</ele><time>2003-07-12T13:59:33Z</time></trkpt>
<trkpt lat="46.22763330" lon="7.44095000"><ele>1388</ele><time>2003-07-12T13:59:47Z</time></trkpt>
<trkpt lat="46.22763330" lon="7.44095000"><ele>1389</ele><time>2003-07-12T14:00:01Z</time></trkpt>
<trkpt lat="46.22761670" lon="7.44106670"><ele>1389</ele><time>2003-07-12T14:00:28Z</time></trkpt>
<trkpt lat="46.22763330" lon="7.44155000"><ele>1395</ele><time>2003-07-12T14:00:45Z</time></trkpt>
<trkpt lat="46.22770000" lon="7.44213330"><ele>1399</ele><time>2003-07-12T14:01:06Z</time></trkpt>
<trkpt lat="46.22775000" lon="7.44265000"><ele>1405</ele><time>2003-07-12T14:01:25Z</time></trkpt>
<trkpt lat="46.22776670" lon="7.44353330"><ele>1407</ele><time>2003-07-12T14:01:50Z</time></trkpt>
<trkpt lat="46.22768330" lon="7.44401670"><ele>1408</ele><time>2003-07-12T14:02:08Z</time></trkpt>
<trkpt lat="46.22758330" lon="7.44456670"><ele>1410</ele><time>2003-07-12T14:02:26Z</time></trkpt>
<trkpt lat="46.22755000" lon="7.44488330"><ele>1410</ele><time>2003-07-12T14:02:36Z</time></trkpt>
<trkpt lat="46.22775000" lon="7.44521670"><ele>1407</ele><time>2003-07-12T14:02:44Z</time></trkpt>
<trkpt lat="46.22781670" lon="7.44583330"><ele>1405</ele><time>2003-07-12T14:02:56Z</time></trkpt>
<trkpt lat="46.22785000" lon="7.44613330"><ele>1405</ele><time>2003-07-12T14:03:09Z</time></trkpt>
<trkpt lat="46.22791670" lon="7.44658330"><ele>1406</ele><time>2003-07-12T14:03:29Z</time></trkpt>
<trkpt lat="46.22791670" lon="7.44696670"><ele>1407</ele><time>2003-07-12T14:03:46Z</time></trkpt>
<trkpt lat="46.22800000" lon="7.44745000"><ele>1411</ele><time>2003-07-12T14:04:08Z</time></trkpt>
<trkpt lat="46.22805000" lon="7.44785000"><ele>1413</ele><time>2003-07-12T14:04:24Z</time></trkpt>
<trkpt lat="46.22803330" lon="7.44801670"><ele>1412</ele><time>2003-07-12T14:04:39Z</time></trkpt>
<trkpt lat="46.22811670" lon="7.44803330"><ele>1422</ele><time>2003-07-12T14:06:07Z</time></trkpt>
<trkpt lat="46.22810000" lon="7.44801670"><ele>1418</ele><time>2003-07-12T14:06:36Z</time></trkpt>
<trkpt lat="46.22800000" lon="7.44781670"><ele>1416</ele><time>2003-07-12T14:06:48Z</time></trkpt>
<trkpt lat="46.22788330" lon="7.44748330"><ele>1418</ele><time>2003-07-12T14:07:07Z</time></trkpt>
<trkpt lat="46.22770000" lon="7.44713330"><ele>1417</ele><time>2003-07-12T14:07:27Z</time></trkpt>
<trkpt lat="46.22760000" lon="7.44678330"><ele>1420</ele><time>2003-07-12T14:07:46Z</time></trkpt>
<trkpt lat="46.22743330" lon="7.44645000"><ele>1423</ele><time>2003-07-12T14:08:06Z</time></trkpt>
<trkpt lat="46.22725000" lon="7.44613330"><ele>1424</ele><time>2003-07-12T14:08:29Z</time></trkpt>
<trkpt lat="46.22716670" lon="7.44576670"><ele>1427</ele><time>2003-07-12T14:08:46Z</time></trkpt>
<trkpt lat="46.22710000" lon="7.44533330"><ele>1428</ele><time>2003-07-12T14:09:08Z</time></trkpt>
<trkpt lat="46.22700000" lon="7.44488330"><ele>1429</ele><time>2003-07-12T14:09:31Z</time></trkpt>
<trkpt lat="46.22686670" lon="7.44450000"><ele>1430</ele><time>2003-07-12T14:09:52Z</time></trkpt>
<trkpt lat="46.22683330" lon="7.44411670"><ele>1430</ele><time>2003-07-12T14:10:11Z</time></trkpt>
<trkpt lat="46.22670000" lon="7.44365000"><ele>1431</ele><time>2003-07-12T14:10:35Z</time></trkpt>
<trkpt lat="46.22661670" lon="7.44325000"><ele>1435</ele><time>2003-07-12T14:10:58Z</time></trkpt>
<trkpt lat="46.22656670" lon="7.44275000"><ele>1439</ele><time>2003-07-12T14:11:19Z</time></trkpt>
<trkpt lat="46.22643330" lon="7.44223330"><ele>1440</ele><time>2003-07-12T14:11:46Z</time></trkpt>
<trkpt lat="46.22638330" lon="7.44191670"><ele>1446</ele><time>2003-07-12T14:12:09Z</time></trkpt>
<trkpt lat="46.22628330" lon="7.44166670"><ele>1449</ele><time>2003-07-12T14:12:28Z</time></trkpt>
<trkpt lat="46.22628330" lon="7.44161670"><ele>1451</ele><time>2003-07-12T14:12:45Z</time></trkpt>
<trkpt lat="46.22616670" lon="7.44146670"><ele>1439</ele><time>2003-07-12T14:13:32Z</time></trkpt>
<trkpt lat="46.22611670" lon="7.44113330"><ele>1443</ele><time>2003-07-12T14:13:51Z</time></trkpt>
<trkpt lat="46.22608330" lon="7.44061670"><ele>1450</ele><time>2003-07-12T14:14:14Z</time></trkpt>
<trkpt lat="46.22591670" lon="7.44013330"><ele>1456</ele><time>2003-07-12T14:14:36Z</time></trkpt>
<trkpt lat="46.22580000" lon="7.43988330"><ele>1458</ele><time>2003-07-12T14:14:54Z</time></trkpt>
<trkpt lat="46.22546670" lon="7.43931670"><ele>1464</ele><time>2003-07-12T14:15:31Z</time></trkpt>
<trkpt lat="46.22520000" lon="7.43886670"><ele>1467</ele><time>2003-07-12T14:16:01Z</time></trkpt>
<trkpt lat="46.22500000" lon="7.43870000"><ele>1467</ele><time>2003-07-12T14:16:17Z</time></trkpt>
<trkpt lat="46.22483330" lon="7.43853330"><ele>1467</ele><time>2003-07-12T14:16:38Z</time></trkpt>
<trkpt lat="46.22451670" lon="7.43808330"><ele>1469</ele><time>2003-07-12T14:17:08Z</time></trkpt>
<trkpt lat="46.22445000" lon="7.43800000"><ele>1471</ele><time>2003-07-12T14:17:14Z</time></trkpt>
<trkpt lat="46.22415000" lon="7.43770000"><ele>1475</ele><time>2003-07-12T14:17:33Z</time></trkpt>
<trkpt lat="46.22400000" lon="7.43741670"><ele>1477</ele><time>2003-07-12T14:17:56Z</time></trkpt>
<trkpt lat="46.22380000" lon="7.43706670"><ele>1480</ele><time>2003-07-12T14:18:27Z</time></trkpt>
<trkpt lat="46.22371670" lon="7.43673330"><ele>1486</ele><time>2003-07-12T14:18:48Z</time></trkpt>
<trkpt lat="46.22355000" lon="7.43643330"><ele>1493</ele><time>2003-07-12T14:19:11Z</time></trkpt>
<trkpt lat="46.22341670" lon="7.43621670"><ele>1500</ele><time>2003-07-12T14:19:31Z</time></trkpt>
<trkpt lat="46.22341670" lon="7.43610000"><ele>1503</ele><time>2003-07-12T14:19:40Z</time></trkpt>
<trkpt lat="46.22336670" lon="7.43603330"><ele>1509</ele><time>2003-07-12T14:19:58Z</time></trkpt>
<trkpt lat="46.22336670" lon="7.43598330"><ele>1525</ele><time>2003-07-12T14:20:17Z</time></trkpt>
<trkpt lat="46.22318330" lon="7.43583330"><ele>1522</ele><time>2003-07-12T14:20:37Z</time></trkpt>
<trkpt lat="46.22315000" lon="7.43583330"><ele>1520</ele><time>2003-07-12T14:20:56Z</time></trkpt>
<trkpt lat="46.22315000" lon="7.43583330"><ele>1529</ele><time>2003-07-12T14:21:13Z</time></trkpt>
<trkpt lat="46.22305000" lon="7.43573330"><ele>1534</ele><time>2003-07-12T14:22:03Z</time></trkpt>
<trkpt lat="46.22281670" lon="7.43550000"><ele>1532</ele><time>2003-07-12T14:22:22Z</time></trkpt>
<trkpt lat="46.22260000" lon="7.43520000"><ele>1533</ele><time>2003-07-12T14:22:43Z</time></trkpt>
<trkpt lat="46.22236670" lon="7.43490000"><ele>1533</ele><time>2003-07-12T14:23:05Z</time></trkpt>
<trkpt lat="46.22203330" lon="7.43481670"><ele>1534</ele><time>2003-07-12T14:23:32Z</time></trkpt>
<trkpt lat="46.22195000" lon="7.43498330"><ele>1535</ele><time>2003-07-12T14:23:46Z</time></trkpt>
<trkpt lat="46.22188330" lon="7.43521670"><ele>1537</ele><time>2003-07-12T14:24:01Z</time></trkpt>
<trkpt lat="46.22178330" lon="7.43550000"><ele>1538</ele><time>2003-07-12T14:24:19Z</time></trkpt>
<trkpt lat="46.22143330" lon="7.43550000"><ele>1539</ele><time>2003-07-12T14:24:44Z</time></trkpt>
<trkpt lat="46.22131670" lon="7.43540000"><ele>1541</ele><time>2003-07-12T14:24:56Z</time></trkpt>
<trkpt lat="46.22120000" lon="7.43540000"><ele>1543</ele><time>2003-07-12T14:25:10Z</time></trkpt>
<trkpt lat="46.22120000" lon="7.43548330"><ele>1547</ele><time>2003-07-12T14:25:23Z</time></trkpt>
<trkpt lat="46.22123330" lon="7.43531670"><ele>1569</ele><time>2003-07-12T14:27:52Z</time></trkpt>
<trkpt lat="46.22120000" lon="7.43543330"><ele>1541</ele><time>2003-07-12T14:29:23Z</time></trkpt>
<trkpt lat="46.22140000" lon="7.43571670"><ele>1540</ele><time>2003-07-12T14:29:42Z</time></trkpt>
<trkpt lat="46.22168330" lon="7.43595000"><ele>1541</ele><time>2003-07-12T14:30:11Z</time></trkpt>
<trkpt lat="46.22203330" lon="7.43616670"><ele>1544</ele><time>2003-07-12T14:30:44Z</time></trkpt>
<trkpt lat="46.22221670" lon="7.43645000"><ele>1552</ele><time>2003-07-12T14:31:06Z</time></trkpt>
<trkpt lat="46.22233330" lon="7.43670000"><ele>1555</ele><time>2003-07-12T14:31:28Z</time></trkpt>
<trkpt lat="46.22248330" lon="7.43690000"><ele>1558</ele><time>2003-07-12T14:31:47Z</time></trkpt>
<trkpt lat="46.22265000" lon="7.43715000"><ele>1561</ele><time>2003-07-12T14:32:09Z</time></trkpt>
<trkpt lat="46.22280000" lon="7.43745000"><ele>1564</ele><time>2003-07-12T14:32:31Z</time></trkpt>
<trkpt lat="46.22288330" lon="7.43780000"><ele>1567</ele><time>2003-07-12T14:32:49Z</time></trkpt>
<trkpt lat="46.22291670" lon="7.43825000"><ele>1568</ele><time>2003-07-12T14:33:11Z</time></trkpt>
<trkpt lat="46.22298330" lon="7.43868330"><ele>1567</ele><time>2003-07-12T14:33:33Z</time></trkpt>
<trkpt lat="46.22311670" lon="7.43900000"><ele>1568</ele><time>2003-07-12T14:33:52Z</time></trkpt>
<trkpt lat="46.21610000" lon="7.43531670"><ele>1533</ele><time>2003-07-12T15:11:42Z</time></trkpt>
<trkpt lat="46.21538330" lon="7.43506670"><ele>1531</ele><time>2003-07-12T15:11:50Z</time></trkpt>
<trkpt lat="46.21178330" lon="7.43741670"><ele>1469</ele><time>2003-07-12T15:12:59Z</time></trkpt>
<trkpt lat="46.21125000" lon="7.43770000"><ele>1463</ele><time>2003-07-12T15:13:07Z</time></trkpt>
<trkpt lat="46.21056670" lon="7.43811670"><ele>1456</ele><time>2003-07-12T15:13:16Z</time></trkpt>
<trkpt lat="46.21026670" lon="7.43825000"><ele>1454</ele><time>2003-07-12T15:13:20Z</time></trkpt>
<trkpt lat="46.20961670" lon="7.43815000"><ele>1447</ele><time>2003-07-12T15:13:28Z</time></trkpt>
<trkpt lat="46.20910000" lon="7.43790000"><ele>1444</ele><time>2003-07-12T15:13:34Z</time></trkpt>
<trkpt lat="46.20863330" lon="7.43785000"><ele>1442</ele><time>2003-07-12T15:13:41Z</time></trkpt>
<trkpt lat="46.20836670" lon="7.43750000"><ele>1441</ele><time>2003-07-12T15:13:46Z</time></trkpt>
<trkpt lat="46.20830000" lon="7.43721670"><ele>1440</ele><time>2003-07-12T15:13:49Z</time></trkpt>
<trkpt lat="46.20805000" lon="7.43681670"><ele>1435</ele><time>2003-07-12T15:13:55Z</time></trkpt>
<trkpt lat="46.20791670" lon="7.43673330"><ele>1435</ele><time>2003-07-12T15:13:57Z</time></trkpt>
<trkpt lat="46.20761670" lon="7.43660000"><ele>1432</ele><time>2003-07-12T15:14:02Z</time></trkpt>
<trkpt lat="46.20736670" lon="7.43633330"><ele>1429</ele><time>2003-07-12T15:14:07Z</time></trkpt>
<trkpt lat="46.20726670" lon="7.43606670"><ele>1428</ele><time>2003-07-12T15:14:10Z</time></trkpt>
<trkpt lat="46.20665000" lon="7.43528330"><ele>1421</ele><time>2003-07-12T15:14:19Z</time></trkpt>
<trkpt lat="46.20613330" lon="7.43460000"><ele>1418</ele><time>2003-07-12T15:14:28Z</time></trkpt>
<trkpt lat="46.20586670" lon="7.43401670"><ele>1417</ele><time>2003-07-12T15:14:34Z</time></trkpt>
<trkpt lat="46.20550000" lon="7.43375000"><ele>1415</ele><time>2003-07-12T15:14:39Z</time></trkpt>
<trkpt lat="46.20473330" lon="7.43318330"><ele>1404</ele><time>2003-07-12T15:14:48Z</time></trkpt>
<trkpt lat="46.20461670" lon="7.43301670"><ele>1403</ele><time>2003-07-12T15:14:50Z</time></trkpt>
<trkpt lat="46.20428330" lon="7.43256670"><ele>1400</ele><time>2003-07-12T15:14:56Z</time></trkpt>
<trkpt lat="46.20400000" lon="7.43235000"><ele>1397</ele><time>2003-07-12T15:15:01Z</time></trkpt>
<trkpt lat="46.20395000" lon="7.43228330"><ele>1396</ele><time>2003-07-12T15:15:03Z</time></trkpt>
<trkpt lat="46.20418330" lon="7.43230000"><ele>1393</ele><time>2003-07-12T15:15:09Z</time></trkpt>
<trkpt lat="46.20486670" lon="7.43265000"><ele>1390</ele><time>2003-07-12T15:15:18Z</time></trkpt>
<trkpt lat="46.20506670" lon="7.43271670"><ele>1390</ele><time>2003-07-12T15:15:20Z</time></trkpt>
<trkpt lat="46.20545000" lon="7.43266670"><ele>1389</ele><time>2003-07-12T15:15:24Z</time></trkpt>
<trkpt lat="46.20646670" lon="7.43281670"><ele>1380</ele><time>2003-07-12T15:15:35Z</time></trkpt>
<trkpt lat="46.20655000" lon="7.43285000"><ele>1379</ele><time>2003-07-12T15:15:36Z</time></trkpt>
<trkpt lat="46.20686670" lon="7.43280000"><ele>1372</ele><time>2003-07-12T15:15:39Z</time></trkpt>
<trkpt lat="46.20751670" lon="7.43308330"><ele>1359</ele><time>2003-07-12T15:15:46Z</time></trkpt>
<trkpt lat="46.20766670" lon="7.43323330"><ele>1356</ele><time>2003-07-12T15:15:48Z</time></trkpt>
<trkpt lat="46.20830000" lon="7.43406670"><ele>1347</ele><time>2003-07-12T15:15:57Z</time></trkpt>
<trkpt lat="46.20856670" lon="7.43430000"><ele>1343</ele><time>2003-07-12T15:16:02Z</time></trkpt>
<trkpt lat="46.20866670" lon="7.43436670"><ele>1340</ele><time>2003-07-12T15:16:10Z</time></trkpt>
<trkpt lat="46.20878330" lon="7.43435000"><ele>1332</ele><time>2003-07-12T15:16:59Z</time></trkpt>
<trkpt lat="46.20891670" lon="7.43445000"><ele>1332</ele><time>2003-07-12T15:17:05Z</time></trkpt>
<trkpt lat="46.20916670" lon="7.43441670"><ele>1331</ele><time>2003-07-12T15:17:10Z</time></trkpt>
<trkpt lat="46.20966670" lon="7.43411670"><ele>1332</ele><time>2003-07-12T15:17:18Z</time></trkpt>
<trkpt lat="46.20996670" lon="7.43371670"><ele>1333</ele><time>2003-07-12T15:17:24Z</time></trkpt>
<trkpt lat="46.21036670" lon="7.43351670"><ele>1333</ele><time>2003-07-12T15:17:30Z</time></trkpt>
<trkpt lat="46.21063330" lon="7.43323330"><ele>1332</ele><time>2003-07-12T15:17:36Z</time></trkpt>
<trkpt lat="46.21075000" lon="7.43290000"><ele>1332</ele><time>2003-07-12T15:17:41Z</time></trkpt>
<trkpt lat="46.21081670" lon="7.43280000"><ele>1331</ele><time>2003-07-12T15:17:43Z</time></trkpt>
<trkpt lat="46.21101670" lon="7.43251670"><ele>1331</ele><time>2003-07-12T15:17:50Z</time></trkpt>
<trkpt lat="46.21125000" lon="7.43226670"><ele>1330</ele><time>2003-07-12T15:18:00Z</time></trkpt>
<trkpt lat="46.21148330" lon="7.43203330"><ele>1329</ele><time>2003-07-12T15:18:10Z</time></trkpt>
<trkpt lat="46.21191670" lon="7.43158330"><ele>1329</ele><time>2003-07-12T15:18:26Z</time></trkpt>
<trkpt lat="46.21213330" lon="7.43136670"><ele>1329</ele><time>2003-07-12T15:18:35Z</time></trkpt>
<trkpt lat="46.21218330" lon="7.43130000"><ele>1330</ele><time>2003-07-12T15:18:42Z</time></trkpt>
<trkpt lat="46.21228330" lon="7.43118330"><ele>1328</ele><time>2003-07-12T15:18:54Z</time></trkpt>
<trkpt lat="46.21250000" lon="7.43101670"><ele>1329</ele><time>2003-07-12T15:19:13Z</time></trkpt>
<trkpt lat="46.21266670" lon="7.43076670"><ele>1330</ele><time>2003-07-12T15:19:28Z</time></trkpt>
<trkpt lat="46.21281670" lon="7.43050000"><ele>1332</ele><time>2003-07-12T15:19:41Z</time></trkpt>
<trkpt lat="46.21298330" lon="7.43028330"><ele>1333</ele><time>2003-07-12T15:19:54Z</time></trkpt>
<trkpt lat="46.21303330" lon="7.43026670"><ele>1334</ele><time>2003-07-12T15:19:57Z</time></trkpt>
<trkpt lat="46.21318330" lon="7.43011670"><ele>1336</ele><time>2003-07-12T15:20:07Z</time></trkpt>
<trkpt lat="46.21326670" lon="7.43001670"><ele>1337</ele><time>2003-07-12T15:20:17Z</time></trkpt>
<trkpt lat="46.21328330" lon="7.43001670"><ele>1337</ele><time>2003-07-12T15:20:18Z</time></trkpt>
<trkpt lat="46.21336670" lon="7.42990000"><ele>1338</ele><time>2003-07-12T15:20:28Z</time></trkpt>
<trkpt lat="46.21343330" lon="7.42986670"><ele>1338</ele><time>2003-07-12T15:20:33Z</time></trkpt>
<trkpt lat="46.21350000" lon="7.42976670"><ele>1340</ele><time>2003-07-12T15:20:41Z</time></trkpt>
<trkpt lat="46.21356670" lon="7.42971670"><ele>1341</ele><time>2003-07-12T15:20:55Z</time></trkpt>
<trkpt lat="46.21361670" lon="7.42968330"><ele>1343</ele><time>2003-07-12T15:21:17Z</time></trkpt>
<trkpt lat="46.21371670" lon="7.42966670"><ele>1344</ele><time>2003-07-12T15:21:25Z</time></trkpt>
<trkpt lat="46.21373330" lon="7.42966670"><ele>1344</ele><time>2003-07-12T15:21:27Z</time></trkpt>
<trkpt lat="46.21385000" lon="7.42966670"><ele>1345</ele><time>2003-07-12T15:21:37Z</time></trkpt>
<trkpt lat="46.21388330" lon="7.42968330"><ele>1345</ele><time>2003-07-12T15:21:41Z</time></trkpt>
<trkpt lat="46.21400000" lon="7.42971670"><ele>1347</ele><time>2003-07-12T15:21:52Z</time></trkpt>
<trkpt lat="46.21406670" lon="7.42975000"><ele>1348</ele><time>2003-07-12T15:22:03Z</time></trkpt>
<trkpt lat="46.21410000" lon="7.42980000"><ele>1349</ele><time>2003-07-12T15:22:07Z</time></trkpt>
<trkpt lat="46.21411670" lon="7.42980000"><ele>1349</ele><time>2003-07-12T15:22:09Z</time></trkpt>
<trkpt lat="46.21423330" lon="7.42988330"><ele>1350</ele><time>2003-07-12T15:22:18Z</time></trkpt>
<trkpt lat="46.21430000" lon="7.42991670"><ele>1350</ele><time>2003-07-12T15:22:22Z</time></trkpt>
<trkpt lat="46.21441670" lon="7.43003330"><ele>1348</ele><time>2003-07-12T15:22:30Z</time></trkpt>
<trkpt lat="46.21445000" lon="7.43010000"><ele>1348</ele><time>2003-07-12T15:22:41Z</time></trkpt>
<trkpt lat="46.21445000" lon="7.43010000"><ele>1347</ele><time>2003-07-12T15:23:03Z</time></trkpt>
<trkpt lat="46.21470000" lon="7.43013330"><ele>1344</ele><time>2003-07-12T15:23:10Z</time></trkpt>
<trkpt lat="46.21505000" lon="7.43026670"><ele>1340</ele><time>2003-07-12T15:23:16Z</time></trkpt>
<trkpt lat="46.21513330" lon="7.43018330"><ele>1339</ele><time>2003-07-12T15:23:22Z</time></trkpt>
<trkpt lat="46.21513330" lon="7.43016670"><ele>1339</ele><time>2003-07-12T15:23:23Z</time></trkpt>
<trkpt lat="46.21496670" lon="7.43003330"><ele>1339</ele><time>2003-07-12T15:23:29Z</time></trkpt>
<trkpt lat="46.21485000" lon="7.42995000"><ele>1338</ele><time>2003-07-12T15:23:32Z</time></trkpt>
<trkpt lat="46.21490000" lon="7.42990000"><ele>1336</ele><time>2003-07-12T15:23:37Z</time></trkpt>
<trkpt lat="46.21503330" lon="7.42991670"><ele>1335</ele><time>2003-07-12T15:23:41Z</time></trkpt>
<trkpt lat="46.21523330" lon="7.43003330"><ele>1331</ele><time>2003-07-12T15:23:48Z</time></trkpt>
<trkpt lat="46.21548330" lon="7.43010000"><ele>1330</ele><time>2003-07-12T15:23:53Z</time></trkpt>
<trkpt lat="46.21556670" lon="7.43013330"><ele>1329</ele><time>2003-07-12T15:23:55Z</time></trkpt>
<trkpt lat="46.21610000" lon="7.43050000"><ele>1326</ele><time>2003-07-12T15:24:06Z</time></trkpt>
<trkpt lat="46.21653330" lon="7.43053330"><ele>1325</ele><time>2003-07-12T15:24:15Z</time></trkpt>
<trkpt lat="46.21663330" lon="7.43053330"><ele>1325</ele><time>2003-07-12T15:24:18Z</time></trkpt>
<trkpt lat="46.21668330" lon="7.43053330"><ele>1326</ele><time>2003-07-12T15:24:28Z</time></trkpt>
<trkpt lat="46.21665000" lon="7.43053330"><ele>1326</ele><time>2003-07-12T15:24:55Z</time></trkpt>
<trkpt lat="46.21671670" lon="7.43043330"><ele>1326</ele><time>2003-07-12T15:25:00Z</time></trkpt>
<trkpt lat="46.21706670" lon="7.43035000"><ele>1324</ele><time>2003-07-12T15:25:14Z</time></trkpt>
<trkpt lat="46.21785000" lon="7.43038330"><ele>1322</ele><time>2003-07-12T15:25:30Z</time></trkpt>
<trkpt lat="46.21858330" lon="7.43031670"><ele>1320</ele><time>2003-07-12T15:25:50Z</time></trkpt>
<trkpt lat="46.21880000" lon="7.43031670"><ele>1321</ele><time>2003-07-12T15:26:04Z</time></trkpt>
<trkpt lat="46.21886670" lon="7.43033330"><ele>1321</ele><time>2003-07-12T15:26:34Z</time></trkpt>
<trkpt lat="46.21903330" lon="7.43020000"><ele>1320</ele><time>2003-07-12T15:26:38Z</time></trkpt>
<trkpt lat="46.21956670" lon="7.42983330"><ele>1320</ele><time>2003-07-12T15:26:50Z</time></trkpt>
<trkpt lat="46.21970000" lon="7.42973330"><ele>1321</ele><time>2003-07-12T15:26:53Z</time></trkpt>
<trkpt lat="46.21975000" lon="7.42966670"><ele>1322</ele><time>2003-07-12T15:26:55Z</time></trkpt>
<trkpt lat="46.21981670" lon="7.42960000"><ele>1323</ele><time>2003-07-12T15:26:57Z</time></trkpt>
<trkpt lat="46.21986670" lon="7.42946670"><ele>1324</ele><time>2003-07-12T15:27:08Z</time></trkpt>
<trkpt lat="46.21990000" lon="7.42943330"><ele>1323</ele><time>2003-07-12T15:27:11Z</time></trkpt>
<trkpt lat="46.22008330" lon="7.42931670"><ele>1324</ele><time>2003-07-12T15:27:28Z</time></trkpt>
<trkpt lat="46.22013330" lon="7.42926670"><ele>1326</ele><time>2003-07-12T15:27:44Z</time></trkpt>
<trkpt lat="46.22023330" lon="7.42921670"><ele>1333</ele><time>2003-07-12T15:28:57Z</time></trkpt>
<trkpt lat="46.22038330" lon="7.42920000"><ele>1332</ele><time>2003-07-12T15:29:06Z</time></trkpt>
<trkpt lat="46.22050000" lon="7.42923330"><ele>1331</ele><time>2003-07-12T15:29:18Z</time></trkpt>
<trkpt lat="46.22051670" lon="7.42928330"><ele>1332</ele><time>2003-07-12T15:29:39Z</time></trkpt>
<trkpt lat="46.22056670" lon="7.42935000"><ele>1332</ele><time>2003-07-12T15:30:28Z</time></trkpt>
<trkpt lat="46.22066670" lon="7.42936670"><ele>1331</ele><time>2003-07-12T15:30:32Z</time></trkpt>
<trkpt lat="46.22095000" lon="7.42938330"><ele>1331</ele><time>2003-07-12T15:30:36Z</time></trkpt>
<trkpt lat="46.22161670" lon="7.42921670"><ele>1330</ele><time>2003-07-12T15:30:46Z</time></trkpt>
<trkpt lat="46.22201670" lon="7.42921670"><ele>1331</ele><time>2003-07-12T15:30:53Z</time></trkpt>
<trkpt lat="46.22266670" lon="7.42881670"><ele>1331</ele><time>2003-07-12T15:31:05Z</time></trkpt>
<trkpt lat="46.22270000" lon="7.42878330"><ele>1331</ele><time>2003-07-12T15:31:06Z</time></trkpt>
<trkpt lat="46.22355000" lon="7.42823330"><ele>1331</ele><time>2003-07-12T15:31:22Z</time></trkpt>
<trkpt lat="46.22358330" lon="7.42820000"><ele>1331</ele><time>2003-07-12T15:31:23Z</time></trkpt>
<trkpt lat="46.22410000" lon="7.42780000"><ele>1329</ele><time>2003-07-12T15:31:35Z</time></trkpt>
<trkpt lat="46.22418330" lon="7.42775000"><ele>1329</ele><time>2003-07-12T15:31:37Z</time></trkpt>
<trkpt lat="46.22448330" lon="7.42788330"><ele>1327</ele><time>2003-07-12T15:31:46Z</time></trkpt>
<trkpt lat="46.22498330" lon="7.42780000"><ele>1326</ele><time>2003-07-12T15:31:58Z</time></trkpt>
<trkpt lat="46.22515000" lon="7.42771670"><ele>1327</ele><time>2003-07-12T15:32:02Z</time></trkpt>
<trkpt lat="46.22550000" lon="7.42763330"><ele>1323</ele><time>2003-07-12T15:32:11Z</time></trkpt>
<trkpt lat="46.22565000" lon="7.42758330"><ele>1322</ele><time>2003-07-12T15:32:15Z</time></trkpt>
<trkpt lat="46.22581670" lon="7.42736670"><ele>1320</ele><time>2003-07-12T15:32:19Z</time></trkpt>
<trkpt lat="46.22598330" lon="7.42703330"><ele>1317</ele><time>2003-07-12T15:32:24Z</time></trkpt>
<trkpt lat="46.22616670" lon="7.42683330"><ele>1315</ele><time>2003-07-12T15:32:28Z</time></trkpt>
<trkpt lat="46.22641670" lon="7.42668330"><ele>1314</ele><time>2003-07-12T15:32:33Z</time></trkpt>
<trkpt lat="46.22658330" lon="7.42640000"><ele>1312</ele><time>2003-07-12T15:32:37Z</time></trkpt>
<trkpt lat="46.22663330" lon="7.42593330"><ele>1312</ele><time>2003-07-12T15:32:43Z</time></trkpt>
<trkpt lat="46.22653330" lon="7.42546670"><ele>1310</ele><time>2003-07-12T15:32:52Z</time></trkpt>
<trkpt lat="46.22670000" lon="7.42508330"><ele>1306</ele><time>2003-07-12T15:33:00Z</time></trkpt>
</trkseg></trk></gpx>